Celebrity Century — 9HJI9 — position and weather

sailwx.info

Track history (hours):
 
Tides and Currents Weather Stations Pressure Air Temp Water Temp Dewpoint Dewpoint Depression Visibility Wind Speed Wind Dir Waves Ship Positions

Celebrity Century

Last reported at 2018-Feb-20 12:47 UTC. Time now 2018-Feb-22 08:49 UTC.
Position N 33°57' E 129°45'.

Length 251 m; draft 8 m.

Type: Passenger vessel. MMSI: 249054000.

Date/timePositionNaut miles runAvg speedWind from/ knotsBaromVisibWave heightAir tempDewpointWater temp
2018-Feb-20 12:47N 33°57' E 129°45'311.8
2018-Feb-20 12:30N 33°58' E 129°49'611.1
2018-Feb-20 12:00N 33°58' E 129°56'611.4
2018-Feb-20 11:29N 33°59' E 130°03'511.3
2018-Feb-20 11:01N 33°60' E 130°09'611.4
2018-Feb-20 10:30N 34°01' E 130°16'611.2
2018-Feb-20 10:00N 34°02' E 130°23'511.0
2018-Feb-20 09:31N 34°02' E 130°29'611.1
2018-Feb-20 09:01N 34°03' E 130°36'611.5
2018-Feb-20 08:31N 34°04' E 130°43'612.3
2018-Feb-20 08:00N 34°02' E 130°50'4 9.0
2018-Feb-20 07:30N 33°59' E 130°54'0 0.4
2018-Feb-20 06:58N 33°59' E 130°54'0 0.0
2018-Feb-20 06:28N 33°59' E 130°54'0 0.0
2018-Feb-20 05:58N 33°59' E 130°54'0 0.0
2018-Feb-20 05:28N 33°59' E 130°54'0 0.0
2018-Feb-20 04:58N 33°59' E 130°54'0 0.0
2018-Feb-20 04:28N 33°59' E 130°54'0 0.0
2018-Feb-20 03:58N 33°59' E 130°54'0 0.0
2018-Feb-20 03:22N 33°59' E 130°54'0 0.0
2018-Feb-20 02:58N 33°59' E 130°54'0 0.0
2018-Feb-20 02:28N 33°59' E 130°54'0 0.0
2018-Feb-20 01:58N 33°59' E 130°54'0 0.0
2018-Feb-20 01:28N 33°59' E 130°54'0 0.0
2018-Feb-20 00:58N 33°59' E 130°54'0 0.0
2018-Feb-20 00:25N 33°59' E 130°54'0 0.0
2018-Feb-19 23:58N 33°59' E 130°54'0 0.0
2018-Feb-19 23:22N 33°59' E 130°54'0 0.0
2018-Feb-19 22:58N 33°59' E 130°54'0 0.1
2018-Feb-19 22:30N 33°59' E 130°54'1 2.5
2018-Feb-19 22:00N 33°60' E 130°52'612.0
2018-Feb-19 21:30N 34°03' E 130°47'714.1
2018-Feb-19 21:00N 34°03' E 130°38'815.9
2018-Feb-19 20:30N 34°01' E 130°29'816.5
2018-Feb-19 20:00N 34°00' E 130°19'815.9
2018-Feb-19 19:30N 33°60' E 130°09'816.1
2018-Feb-19 19:00N 33°59' E 129°60'815.8
2018-Feb-19 18:30N 33°58' E 129°50'816.2
2018-Feb-19 18:00N 33°58' E 129°40'40613.5
2018-Feb-18 11:49N 31°06' E 122°23'1012.6
2018-Feb-18 11:01N 31°10' E 122°12'114.5
2018-Feb-18 10:56N 31°10' E 122°11'614.6
2018-Feb-18 10:30N 31°14' E 122°05'714.4
2018-Feb-18 10:00N 31°15' E 121°57'713.8
2018-Feb-18 09:31N 31°17' E 121°49'8 0.5
2018-Feb-17 18:07N 31°21' E 121°41'211.1
2018-Feb-17 17:55N 31°19' E 121°43'4 9.9
2018-Feb-17 17:30N 31°18' E 121°47'5 9.2
2018-Feb-17 17:00N 31°16' E 121°52'510.5
2018-Feb-17 16:30N 31°15' E 121°58'712.6
2018-Feb-17 16:00N 31°14' E 122°06'613.0
2018-Feb-17 15:30N 31°10' E 122°12'713.6
2018-Feb-17 15:00N 31°06' E 122°18'611.8
2018-Feb-17 14:30N 31°07' E 122°25'711.9
2018-Feb-17 13:54N 31°07' E 122°34'2013.7
2018-Feb-17 12:25N 31°06' E 122°57'613.4
2018-Feb-17 12:00N 31°06' E 123°04'713.2
2018-Feb-17 11:30N 31°07' E 123°12'  
2018-Feb-14 11:12N 31°06' E 122°22'312.5
2018-Feb-14 11:00N 31°06' E 122°19'814.1
2018-Feb-14 10:25N 31°10' E 122°11'614.7
2018-Feb-14 10:01N 31°14' E 122°05'814.6
2018-Feb-14 09:28N 31°15' E 121°56'613.9
2018-Feb-14 09:00N 31°17' E 121°49'612.9
2018-Feb-14 08:30N 31°20' E 121°42'611.8
2018-Feb-14 08:00N 31°23' E 121°36'510.6
2018-Feb-14 07:30N 31°25' E 121°30'0 0.2
2018-Feb-14 06:50N 31°25' E 121°30'0 0.0
2018-Feb-14 06:20N 31°25' E 121°30'0 0.0
2018-Feb-14 05:59N 31°25' E 121°30'0 0.0
2018-Feb-14 05:29N 31°25' E 121°30'0 0.0
2018-Feb-14 04:59N 31°25' E 121°30'0 0.0
2018-Feb-14 04:29N 31°25' E 121°30'0 0.0
2018-Feb-14 03:59N 31°25' E 121°30'0 0.0
2018-Feb-14 03:26N 31°25' E 121°30'0 0.0
2018-Feb-14 02:41N 31°25' E 121°30'0 0.0
2018-Feb-14 02:26N 31°25' E 121°30'0 0.0
2018-Feb-14 01:59N 31°25' E 121°30'0 0.0
2018-Feb-14 01:20N 31°25' E 121°30'0 0.0
2018-Feb-14 00:26N 31°25' E 121°30'0 0.0
2018-Feb-13 23:59N 31°25' E 121°30'0 0.0
2018-Feb-13 23:30N 31°25' E 121°30'1 2.9
2018-Feb-13 22:59N 31°24' E 121°32'4 8.8
2018-Feb-13 22:30N 31°23' E 121°36'611.8
2018-Feb-13 22:00N 31°20' E 121°42'712.6
2018-Feb-13 21:30N 31°17' E 121°49'612.0
2018-Feb-13 21:00N 31°15' E 121°56'611.4
2018-Feb-13 20:30N 31°14' E 122°03'611.2
2018-Feb-13 20:00N 31°12' E 122°09'611.6
2018-Feb-13 19:30N 31°09' E 122°14'612.3
2018-Feb-13 19:00N 31°06' E 122°21'612.0
2018-Feb-13 18:30N 31°07' E 122°28'5 9.7
2018-Feb-13 18:00N 31°07' E 122°33'812.4
2018-Feb-13 17:21N 31°07' E 122°43'412.6
2018-Feb-13 16:59N 31°06' E 122°48'  
2018-Feb-10 15:28N 31°06' E 122°31'1413.0
2018-Feb-10 14:24N 31°08' E 122°15'613.2
2018-Feb-10 13:55N 31°12' E 122°09'612.3
2018-Feb-10 13:28N 31°14' E 122°03'712.8
2018-Feb-10 12:57N 31°15' E 121°55'  
Track history (hours):
 
Tides and Currents Weather Stations Pressure Air Temp Water Temp Dewpoint Dewpoint Depression Visibility Wind Speed Wind Dir Waves Ship Positions

Celebrity Century

Last reported at 2018-Feb-20 12:47 UTC. Time now 2018-Feb-22 08:49 UTC.
Position N 33°57' E 129°45'.

Length 251 m; draft 8 m.

Type: Passenger vessel. MMSI: 249054000.

Date/timePositionNaut miles runAvg speedWind from/ knotsBaromVisibWave heightAir tempDewpointWater temp
2018-Feb-20 12:47N 33°57' E 129°45'311.8
2018-Feb-20 12:30N 33°58' E 129°49'611.1
2018-Feb-20 12:00N 33°58' E 129°56'611.4
2018-Feb-20 11:29N 33°59' E 130°03'511.3
2018-Feb-20 11:01N 33°60' E 130°09'611.4
2018-Feb-20 10:30N 34°01' E 130°16'611.2
2018-Feb-20 10:00N 34°02' E 130°23'511.0
2018-Feb-20 09:31N 34°02' E 130°29'611.1
2018-Feb-20 09:01N 34°03' E 130°36'611.5
2018-Feb-20 08:31N 34°04' E 130°43'612.3
2018-Feb-20 08:00N 34°02' E 130°50'4 9.0
2018-Feb-20 07:30N 33°59' E 130°54'0 0.4
2018-Feb-20 06:58N 33°59' E 130°54'0 0.0
2018-Feb-20 06:28N 33°59' E 130°54'0 0.0
2018-Feb-20 05:58N 33°59' E 130°54'0 0.0
2018-Feb-20 05:28N 33°59' E 130°54'0 0.0
2018-Feb-20 04:58N 33°59' E 130°54'0 0.0
2018-Feb-20 04:28N 33°59' E 130°54'0 0.0
2018-Feb-20 03:58N 33°59' E 130°54'0 0.0
2018-Feb-20 03:22N 33°59' E 130°54'0 0.0
2018-Feb-20 02:58N 33°59' E 130°54'0 0.0
2018-Feb-20 02:28N 33°59' E 130°54'0 0.0
2018-Feb-20 01:58N 33°59' E 130°54'0 0.0
2018-Feb-20 01:28N 33°59' E 130°54'0 0.0
2018-Feb-20 00:58N 33°59' E 130°54'0 0.0
2018-Feb-20 00:25N 33°59' E 130°54'0 0.0
2018-Feb-19 23:58N 33°59' E 130°54'0 0.0
2018-Feb-19 23:22N 33°59' E 130°54'0 0.0
2018-Feb-19 22:58N 33°59' E 130°54'0 0.1
2018-Feb-19 22:30N 33°59' E 130°54'1 2.5
2018-Feb-19 22:00N 33°60' E 130°52'612.0
2018-Feb-19 21:30N 34°03' E 130°47'714.1
2018-Feb-19 21:00N 34°03' E 130°38'815.9
2018-Feb-19 20:30N 34°01' E 130°29'816.5
2018-Feb-19 20:00N 34°00' E 130°19'815.9
2018-Feb-19 19:30N 33°60' E 130°09'816.1
2018-Feb-19 19:00N 33°59' E 129°60'815.8
2018-Feb-19 18:30N 33°58' E 129°50'816.2
2018-Feb-19 18:00N 33°58' E 129°40'40613.5
2018-Feb-18 11:49N 31°06' E 122°23'1012.6
2018-Feb-18 11:01N 31°10' E 122°12'114.5
2018-Feb-18 10:56N 31°10' E 122°11'614.6
2018-Feb-18 10:30N 31°14' E 122°05'714.4
2018-Feb-18 10:00N 31°15' E 121°57'713.8
2018-Feb-18 09:31N 31°17' E 121°49'8 0.5
2018-Feb-17 18:07N 31°21' E 121°41'211.1
2018-Feb-17 17:55N 31°19' E 121°43'4 9.9
2018-Feb-17 17:30N 31°18' E 121°47'5 9.2
2018-Feb-17 17:00N 31°16' E 121°52'510.5
2018-Feb-17 16:30N 31°15' E 121°58'712.6
2018-Feb-17 16:00N 31°14' E 122°06'613.0
2018-Feb-17 15:30N 31°10' E 122°12'713.6
2018-Feb-17 15:00N 31°06' E 122°18'611.8
2018-Feb-17 14:30N 31°07' E 122°25'711.9
2018-Feb-17 13:54N 31°07' E 122°34'2013.7
2018-Feb-17 12:25N 31°06' E 122°57'613.4
2018-Feb-17 12:00N 31°06' E 123°04'713.2
2018-Feb-17 11:30N 31°07' E 123°12'  
2018-Feb-14 11:12N 31°06' E 122°22'312.5
2018-Feb-14 11:00N 31°06' E 122°19'814.1
2018-Feb-14 10:25N 31°10' E 122°11'614.7
2018-Feb-14 10:01N 31°14' E 122°05'814.6
2018-Feb-14 09:28N 31°15' E 121°56'613.9
2018-Feb-14 09:00N 31°17' E 121°49'612.9
2018-Feb-14 08:30N 31°20' E 121°42'611.8
2018-Feb-14 08:00N 31°23' E 121°36'510.6
2018-Feb-14 07:30N 31°25' E 121°30'0 0.2
2018-Feb-14 06:50N 31°25' E 121°30'0 0.0
2018-Feb-14 06:20N 31°25' E 121°30'0 0.0
2018-Feb-14 05:59N 31°25' E 121°30'0 0.0
2018-Feb-14 05:29N 31°25' E 121°30'0 0.0
2018-Feb-14 04:59N 31°25' E 121°30'0 0.0
2018-Feb-14 04:29N 31°25' E 121°30'0 0.0
2018-Feb-14 03:59N 31°25' E 121°30'0 0.0
2018-Feb-14 03:26N 31°25' E 121°30'0 0.0
2018-Feb-14 02:41N 31°25' E 121°30'0 0.0
2018-Feb-14 02:26N 31°25' E 121°30'0 0.0
2018-Feb-14 01:59N 31°25' E 121°30'0 0.0
2018-Feb-14 01:20N 31°25' E 121°30'0 0.0
2018-Feb-14 00:26N 31°25' E 121°30'0 0.0
2018-Feb-13 23:59N 31°25' E 121°30'0 0.0
2018-Feb-13 23:30N 31°25' E 121°30'1 2.9
2018-Feb-13 22:59N 31°24' E 121°32'4 8.8
2018-Feb-13 22:30N 31°23' E 121°36'611.8
2018-Feb-13 22:00N 31°20' E 121°42'712.6
2018-Feb-13 21:30N 31°17' E 121°49'612.0
2018-Feb-13 21:00N 31°15' E 121°56'611.4
2018-Feb-13 20:30N 31°14' E 122°03'611.2
2018-Feb-13 20:00N 31°12' E 122°09'611.6
2018-Feb-13 19:30N 31°09' E 122°14'612.3
2018-Feb-13 19:00N 31°06' E 122°21'612.0
2018-Feb-13 18:30N 31°07' E 122°28'5 9.7
2018-Feb-13 18:00N 31°07' E 122°33'812.4
2018-Feb-13 17:21N 31°07' E 122°43'412.6
2018-Feb-13 16:59N 31°06' E 122°48'  
2018-Feb-10 15:28N 31°06' E 122°31'1413.0
2018-Feb-10 14:24N 31°08' E 122°15'613.2
2018-Feb-10 13:55N 31°12' E 122°09'612.3
2018-Feb-10 13:28N 31°14' E 122°03'712.8
2018-Feb-10 12:57N 31°15' E 121°55'  

Dump ship's entire track history